Sugar Land Regional Airport
KSGR : now visible

Airfield :











YOU CAN JOIN US ON...

 
LOGIN :

Register | Disclaimer

   EN    FR    IT 

 









Legend :    VFR   Marginal VFR   IFR   Intensive IFR   Very Intensive IFR
Visi :
Ceiling :
>= 8 km
>= 3000ft
5 to 8 km
1000 to 3000 ft
1500m to 5 km
500 to 1000 ft
800 to 1500m
200 to 500 ft
< 800m
< 200 ft
Symbols :   Thunderstorms  Fog  Heavy snow  Heavy precipitations  Wind > 20 kt






- Airport Elevation : 82 ft


KSGR - Sugar Land Regional

CURRENT METAR :
  • 082053Z 11008KT 8SM FEW027 BKN034 23/17 A2997 RMK AO2 SLP149 T02330167 56019

EXPIRED METARs :
  • 081953Z 15004KT 10SM CLR 23/16 A2997 RMK AO2 SLP151 T02330161
  • 081853Z 00000KT 8SM FEW021 23/17 A3000 RMK AO2 SLP160 T02280167

TAF KSGR
Valid from the 08 at 20:00 until the 09 at 18:00 UTC


081931Z 0820/0918 13006KT P6SM SCT020
FM082100 13007KT P6SM SCT020 BKN040
FM090100 13008KT P6SM BKN015
FM091000 14005KT 5SM BR OVC006
FM091200 VRB04KT 2SM BR OVC003
FM091600 20009KT 5SM BR BKN015
KZHU FIR / North America



MET'MAP, your aeronautical weather chart ! - Copyright ORBIFLY December 2007 - Disclaimer

ORBIFLY MET'MAP TEAM :

Programming & Development : Alexandra Zaïnal
Concept & original design : Baudouin d'Aumeries
Assistance for programming : Marc-Olivier Méhu
Technical & hardware support : Manuel Goepfert

Contact : metmap@orbifly.com




SOURCES & CREDITS :

   NOAA       Earth
Advisory